LiveATC.Net - Listen to live air traffic control over the Internet!


ICAO: KMWA  IATA: MWA   Airport: Williamson County Regional Airport
City: Marion   State/Province: Illinois
Country: United States   Continent: North America
KMWA METAR Weather: KMWA 241115Z AUTO 00000KT 10SM CLR M07/M08 A2999 RMK AO2 T10661080
KMWA Flight Activity (FlightAware)
KMWA Airport Info   (AirNav) (iFlightPlanner)
KMWA VFR Sectional Chart   (iFlightPlanner) 
KMWA IFR Low Chart   (iFlightPlanner) 

KMWA Gnd/Twr/CTAF
Feed Status: UP   Listeners: 0
Listen in your browser - HTML5 player (in browser, HTML5)
Click here to listen with your own player (launches your MP3 player)
KMWA Gnd/Twr/CTAF Audio Archives
FacilityFrequency
Marion Ground121.700
Marion Tower/CTAF128.400

NOTICE

Unauthorized use prohibited. See LiveATC.net Terms of Service


Find LiveATC Audio Streams


Airport/ARTCC Code

Frequency Search
(e.g., 124.400, 128.75)
Site-wide search
 


Browse LiveATC Feeds
Top 50 LiveATC Feeds
LiveATC Feed Map
Bad Weather Areas

LiveATC FAQ
Offer LiveATC feed
Contact LiveATC.net
Press Inquiries

LiveATC on iPhone
LiveATC on Android

Windows Phone
Windows 8/10

LiveATC Mobile
(Mobile browser)

ATC Audio Archives
Interesting Recordings

LiveATC Forums


Home Page
About LiveATC.net
Make a Donation
Terms of Use
Privacy Policy

Canadian Air Freqs

AIRMETs/SIGMETs

FAA Airport Status
Nat'l Airspace Status
Arrival Demand Charts


Server Software By:
Icecast.org
Liquidsoap